Terminal Aerodrome Forecast
Issued by NWS

Home | Current Version | Previous Version | Text Only | Print | Product List | Glossary On
Versions: 1 2 3 4 5 6 7 8 9 10 11 12 13 14 15 16 17
000
FTUS46 KLOX 202300
TAFVNY
TAF
KVNY 202331Z 2100/2124 16007KT P6SM SCT250
     FM210300 VRB03KT P6SM SKC
     FM212000 15008KT P6SM SKC=

USA.gov is the U.S. government's official web portal to all federal, state and local government web resources and services.